Time;durP1;ratioP1;P1;durP2;ratioP2;P2;SDS_P1;SDS_P2;PMS_P1;PMS_P2;Temp;Humidity;BMP_temperature;BMP_pressure;BME280_temperature;BME280_humidity;BME280_pressure;Samples;Min_cycle;Max_cycle;Signal;HPM_P1;HPM_P2
2023/11/21 00:00:16;;;;;;;7.13;5.13;;;;;;;;;;10234662;28;20084;-63
2023/11/21 00:05:15;;;;;;;8.57;4.93;;;;;;;;;;10234760;28;20073;-64
2023/11/21 00:10:15;;;;;;;7.15;5.00;;;;;;;;;;10235021;28;20077;-64
2023/11/21 00:15:15;;;;;;;8.68;5.10;;;;;;;;;;10234338;28;20510;-64
2023/11/21 00:20:13;;;;;;;7.57;5.40;;;;;;;;;;10232617;28;20072;-63
2023/11/21 00:25:14;;;;;;;8.52;5.40;;;;;;;;;;10234979;28;20085;-63
2023/11/21 00:30:15;;;;;;;6.65;5.13;;;;;;;;;;10232846;28;20073;-63
2023/11/21 00:35:15;;;;;;;6.05;5.18;;;;;;;;;;10233850;28;20068;-63
2023/11/21 00:40:15;;;;;;;6.43;5.10;;;;;;;;;;10234136;28;20073;-63
2023/11/21 00:45:15;;;;;;;9.20;5.35;;;;;;;;;;10233215;28;20073;-63
2023/11/21 00:50:13;;;;;;;8.15;5.13;;;;;;;;;;10232743;28;20068;-64
2023/11/21 00:55:11;;;;;;;7.35;4.78;;;;;;;;;;10233116;28;20072;-63
2023/11/21 01:00:14;;;;;;;7.90;5.10;;;;;;;;;;10231574;28;20096;-64
2023/11/21 01:05:13;;;;;;;8.52;4.50;;;;;;;;;;10230552;28;20088;-62
2023/11/21 01:10:14;;;;;;;8.88;5.07;;;;;;;;;;10230816;28;20049;-63
2023/11/21 01:15:12;;;;;;;5.22;4.72;;;;;;;;;;10231873;28;20084;-62
2023/11/21 01:20:12;;;;;;;8.65;6.22;;;;;;;;;;10216310;28;20085;-62
2023/11/21 01:25:14;;;;;;;7.28;6.55;;;;;;;;;;10233739;28;20523;-62
2023/11/21 01:30:14;;;;;;;8.52;6.18;;;;;;;;;;10231366;28;20076;-63
2023/11/21 01:35:12;;;;;;;26.33;18.95;;;;;;;;;;10232036;28;20065;-62
2023/11/21 01:40:13;;;;;;;10.35;7.50;;;;;;;;;;10229966;28;20065;-63
2023/11/21 01:45:14;;;;;;;12.27;9.18;;;;;;;;;;10222435;28;20073;-63
2023/11/21 01:50:15;;;;;;;21.20;15.60;;;;;;;;;;10223263;28;20056;-63
2023/11/21 01:55:16;;;;;;;22.00;18.08;;;;;;;;;;10230959;28;20050;-63
2023/11/21 02:00:27;;;;;;;12.65;9.25;;;;;;;;;;10222694;28;20088;-63
2023/11/21 02:05:27;;;;;;;6.68;5.20;;;;;;;;;;10231412;28;20073;-64
2023/11/21 02:10:25;;;;;;;11.57;8.38;;;;;;;;;;10229812;28;20065;-64
2023/11/21 02:15:26;;;;;;;21.00;9.57;;;;;;;;;;10229482;28;20068;-64
2023/11/21 02:20:28;;;;;;;8.57;6.63;;;;;;;;;;10228815;28;20046;-64
2023/11/21 02:25:28;;;;;;;10.02;8.15;;;;;;;;;;10236284;28;20597;-64
2023/11/21 02:30:27;;;;;;;5.95;5.35;;;;;;;;;;10235516;28;20077;-64
2023/11/21 02:35:26;;;;;;;4.57;3.90;;;;;;;;;;10226159;28;20037;-64
2023/11/21 02:40:26;;;;;;;5.65;4.60;;;;;;;;;;10250045;28;20045;-64
2023/11/21 02:45:26;;;;;;;6.40;4.28;;;;;;;;;;10235897;28;20065;-64
2023/11/21 02:50:25;;;;;;;3.95;3.47;;;;;;;;;;10235904;28;20069;-64
2023/11/21 02:55:24;;;;;;;5.55;3.50;;;;;;;;;;10236706;28;20514;-64
2023/11/21 03:00:25;;;;;;;5.10;3.47;;;;;;;;;;10235831;28;20624;-64
2023/11/21 03:05:24;;;;;;;7.40;3.88;;;;;;;;;;10229763;28;20119;-64
2023/11/21 03:10:23;;;;;;;8.50;5.00;;;;;;;;;;10236121;28;20092;-63
2023/11/21 03:15:21;;;;;;;6.53;3.80;;;;;;;;;;10236562;28;20045;-63
2023/11/21 03:20:20;;;;;;;4.93;3.90;;;;;;;;;;10235716;28;20057;-63
2023/11/21 03:25:20;;;;;;;4.07;3.10;;;;;;;;;;10236314;28;20076;-63
2023/11/21 03:30:18;;;;;;;8.27;3.70;;;;;;;;;;10234202;28;20037;-63
2023/11/21 03:35:16;;;;;;;6.18;4.60;;;;;;;;;;10236329;28;20052;-63
2023/11/21 03:40:15;;;;;;;6.55;3.33;;;;;;;;;;10226953;28;20080;-63
2023/11/21 03:45:14;;;;;;;4.35;2.88;;;;;;;;;;10235808;28;20073;-63
2023/11/21 03:50:13;;;;;;;3.50;3.20;;;;;;;;;;10234908;28;20514;-63
2023/11/21 03:55:11;;;;;;;3.70;2.70;;;;;;;;;;10233247;28;20860;-63
2023/11/21 04:00:15;;;;;;;5.70;3.40;;;;;;;;;;10225104;28;20061;-63
2023/11/21 04:05:14;;;;;;;3.40;3.03;;;;;;;;;;10234432;28;20084;-63
2023/11/21 04:10:13;;;;;;;3.97;3.47;;;;;;;;;;10234597;28;20422;-63
2023/11/21 04:15:12;;;;;;;4.25;3.58;;;;;;;;;;10233608;28;20073;-63
2023/11/21 04:20:12;;;;;;;4.60;3.38;;;;;;;;;;10234473;28;20065;-63
2023/11/21 04:25:12;;;;;;;4.70;3.03;;;;;;;;;;10232438;28;20076;-63
2023/11/21 04:30:10;;;;;;;3.65;2.50;;;;;;;;;;10232745;28;20081;-63
2023/11/21 04:35:09;;;;;;;4.05;3.03;;;;;;;;;;10232179;28;20095;-63
2023/11/21 04:40:10;;;;;;;3.72;2.85;;;;;;;;;;10230613;28;20517;-63
2023/11/21 04:45:11;;;;;;;4.47;2.95;;;;;;;;;;10233128;28;20078;-63
2023/11/21 04:50:10;;;;;;;2.83;2.38;;;;;;;;;;10231274;28;20480;-63
2023/11/21 04:55:10;;;;;;;3.45;3.05;;;;;;;;;;10229656;28;20073;-63
2023/11/21 05:00:10;;;;;;;3.40;3.10;;;;;;;;;;10230729;28;20092;-63
2023/11/21 05:05:10;;;;;;;5.80;3.00;;;;;;;;;;10231623;28;20088;-63
2023/11/21 05:10:14;;;;;;;5.63;3.50;;;;;;;;;;10231259;28;20073;-63
2023/11/21 05:15:14;;;;;;;6.25;3.40;;;;;;;;;;10231637;28;20072;-64
2023/11/21 05:20:17;;;;;;;4.32;3.45;;;;;;;;;;10229610;28;20065;-63
2023/11/21 05:25:18;;;;;;;4.53;3.05;;;;;;;;;;10230580;28;20317;-63
2023/11/21 05:30:17;;;;;;;4.13;2.70;;;;;;;;;;10229539;28;20083;-63
2023/11/21 05:35:16;;;;;;;5.32;2.55;;;;;;;;;;10228955;28;20100;-63
2023/11/21 05:40:16;;;;;;;4.45;3.08;;;;;;;;;;10229521;28;20076;-63
2023/11/21 05:45:16;;;;;;;8.70;7.07;;;;;;;;;;10229372;28;20072;-63
2023/11/21 05:50:15;;;;;;;4.32;2.72;;;;;;;;;;10227756;28;20091;-63
2023/11/21 05:55:14;;;;;;;3.80;2.33;;;;;;;;;;10236436;28;20077;-63
2023/11/21 06:00:15;;;;;;;5.93;2.83;;;;;;;;;;10236813;28;20498;-64
2023/11/21 06:05:15;;;;;;;11.13;9.93;;;;;;;;;;10236206;28;20655;-63
2023/11/21 06:10:14;;;;;;;11.18;7.30;;;;;;;;;;10237214;28;20077;-64
2023/11/21 06:15:14;;;;;;;6.40;4.25;;;;;;;;;;10238501;28;20069;-63
2023/11/21 06:20:13;;;;;;;7.47;5.75;;;;;;;;;;10234764;28;20077;-64
2023/11/21 06:25:14;;;;;;;3.65;3.17;;;;;;;;;;10237600;28;20099;-64
2023/11/21 06:30:13;;;;;;;4.70;3.20;;;;;;;;;;10238585;28;20068;-63
2023/11/21 06:35:13;;;;;;;5.13;2.60;;;;;;;;;;10236497;28;20076;-63
2023/11/21 06:40:13;;;;;;;6.95;2.72;;;;;;;;;;10234443;28;20077;-63
2023/11/21 06:45:13;;;;;;;6.80;2.50;;;;;;;;;;10234465;28;20076;-64
2023/11/21 06:50:11;;;;;;;7.03;2.30;;;;;;;;;;10233142;28;20081;-63
2023/11/21 06:55:10;;;;;;;4.65;2.67;;;;;;;;;;10232932;28;20078;-65
2023/11/21 07:00:09;;;;;;;3.40;2.80;;;;;;;;;;10235435;28;20085;-63
2023/11/21 07:05:09;;;;;;;4.60;2.25;;;;;;;;;;10232941;28;20406;-64
2023/11/21 07:10:09;;;;;;;7.60;3.63;;;;;;;;;;10233017;28;20069;-62
2023/11/21 07:15:09;;;;;;;3.65;3.10;;;;;;;;;;10236001;28;20517;-63
2023/11/21 07:20:10;;;;;;;4.50;2.63;;;;;;;;;;10231497;28;20077;-63
2023/11/21 07:25:10;;;;;;;4.10;3.28;;;;;;;;;;10235827;28;20088;-64
2023/11/21 07:30:09;;;;;;;83.00;15.55;;;;;;;;;;10232972;28;20068;-62
2023/11/21 07:35:10;;;;;;;4.90;3.85;;;;;;;;;;10231749;28;20486;-63
2023/11/21 07:40:11;;;;;;;6.38;5.38;;;;;;;;;;10233546;28;20086;-64
2023/11/21 07:45:09;;;;;;;6.57;4.00;;;;;;;;;;10234310;28;20117;-64
2023/11/21 07:50:08;;;;;;;4.90;3.03;;;;;;;;;;10230461;28;20105;-64
2023/11/21 07:55:08;;;;;;;6.50;3.55;;;;;;;;;;10231656;28;20069;-64
2023/11/21 08:00:09;;;;;;;3.47;2.63;;;;;;;;;;10232527;28;20132;-64
2023/11/21 08:05:10;;;;;;;9.18;4.90;;;;;;;;;;10233870;28;20084;-63
2023/11/21 08:10:26;;;;;;;8.43;5.50;;;;;;;;;;10231934;28;20081;-63
2023/11/21 08:15:24;;;;;;;6.95;4.43;;;;;;;;;;10233598;28;20076;-64
2023/11/21 08:20:22;;;;;;;10.50;5.82;;;;;;;;;;10234511;28;20073;-64
2023/11/21 08:25:21;;;;;;;4.68;4.22;;;;;;;;;;10232606;28;20088;-63
2023/11/21 08:30:23;;;;;;;4.95;4.45;;;;;;;;;;10223335;28;20077;-63
2023/11/21 08:35:22;;;;;;;5.22;3.00;;;;;;;;;;10223880;28;20071;-63
2023/11/21 08:40:21;;;;;;;6.95;3.17;;;;;;;;;;10232458;28;20080;-64
2023/11/21 08:45:19;;;;;;;4.40;2.50;;;;;;;;;;10226124;28;20077;-64
2023/11/21 08:50:19;;;;;;;7.22;3.13;;;;;;;;;;10230916;28;20072;-64
2023/11/21 08:55:19;;;;;;;5.57;3.60;;;;;;;;;;10226631;28;20061;-65
2023/11/21 09:00:19;;;;;;;12.15;4.43;;;;;;;;;;10227069;28;20068;-64
2023/11/21 09:05:20;;;;;;;9.98;4.72;;;;;;;;;;10228004;28;20087;-65
2023/11/21 09:10:19;;;;;;;9.05;4.82;;;;;;;;;;10229934;28;20510;-65
2023/11/21 09:15:20;;;;;;;10.93;6.75;;;;;;;;;;10232210;28;20068;-63
2023/11/21 09:20:22;;;;;;;19.90;11.85;;;;;;;;;;10229030;28;20068;-64
2023/11/21 09:25:21;;;;;;;13.50;8.55;;;;;;;;;;10223274;28;20077;-65
2023/11/21 09:30:19;;;;;;;16.27;9.40;;;;;;;;;;10228562;28;20128;-66
2023/11/21 09:35:18;;;;;;;9.30;5.82;;;;;;;;;;10227567;28;20678;-64
2023/11/21 09:40:22;;;;;;;8.05;6.05;;;;;;;;;;10223792;28;20080;-63
2023/11/21 09:45:24;;;;;;;14.63;6.97;;;;;;;;;;10224488;28;20073;-64
2023/11/21 09:50:23;;;;;;;6.10;4.47;;;;;;;;;;10225080;28;20069;-65
2023/11/21 09:55:23;;;;;;;7.03;3.78;;;;;;;;;;10226252;28;20069;-64
2023/11/21 10:00:23;;;;;;;7.47;4.10;;;;;;;;;;10224493;28;20103;-65
2023/11/21 10:05:22;;;;;;;8.23;4.43;;;;;;;;;;10223574;28;20455;-64
2023/11/21 10:10:25;;;;;;;8.10;3.90;;;;;;;;;;10223073;28;20080;-65
2023/11/21 10:15:25;;;;;;;4.72;2.97;;;;;;;;;;10222854;28;20064;-64
2023/11/21 10:20:24;;;;;;;15.77;5.47;;;;;;;;;;10222945;28;20073;-65
2023/11/21 10:25:22;;;;;;;9.73;7.38;;;;;;;;;;10225022;28;20069;-65
2023/11/21 10:30:22;;;;;;;7.57;4.05;;;;;;;;;;10228517;28;20084;-65
2023/11/21 10:35:20;;;;;;;7.93;4.20;;;;;;;;;;10223796;28;20072;-65
2023/11/21 10:40:18;;;;;;;4.78;3.90;;;;;;;;;;10224809;28;20080;-64
2023/11/21 10:45:17;;;;;;;6.25;4.35;;;;;;;;;;10235071;28;20081;-64
2023/11/21 10:50:20;;;;;;;9.02;6.05;;;;;;;;;;10235508;28;20076;-64
2023/11/21 10:55:21;;;;;;;6.72;5.50;;;;;;;;;;10235040;28;20072;-64
2023/11/21 11:00:20;;;;;;;8.00;5.45;;;;;;;;;;10234495;28;20073;-64
2023/11/21 11:05:21;;;;;;;9.50;6.72;;;;;;;;;;10234221;28;20549;-65
2023/11/21 11:10:22;;;;;;;11.05;9.30;;;;;;;;;;10233081;28;20080;-64
2023/11/21 11:15:21;;;;;;;9.38;6.60;;;;;;;;;;10228950;28;20069;-64
2023/11/21 11:20:20;;;;;;;6.75;4.13;;;;;;;;;;10230252;28;20083;-64
2023/11/21 11:25:31;;;;;;;5.43;3.58;;;;;;;;;;10228217;28;20072;-65
2023/11/21 11:30:38;;;;;;;4.00;3.50;;;;;;;;;;10228276;28;20072;-64
2023/11/21 11:35:43;;;;;;;4.68;3.58;;;;;;;;;;10227520;28;20060;-65
2023/11/21 11:40:45;;;;;;;17.93;16.13;;;;;;;;;;10231601;28;20479;-65
2023/11/21 11:45:48;;;;;;;20.77;12.35;;;;;;;;;;10230958;28;20077;-64
2023/11/21 11:51:03;;;;;;;4.90;2.60;;;;;;;;;;10235344;28;20073;-64
2023/11/21 12:01:25;;;;;;;10.48;6.28;;;;;;;;;;10484819;27;20381;-64
2023/11/21 12:06:33;;;;;;;5.63;3.35;;;;;;;;;;10492456;27;20077;-64
2023/11/21 12:11:32;;;;;;;5.80;2.90;;;;;;;;;;10493778;27;20069;-64
2023/11/21 12:16:33;;;;;;;3.20;2.53;;;;;;;;;;10492561;27;20081;-65
2023/11/21 12:21:32;;;;;;;6.60;4.75;;;;;;;;;;10492426;27;20504;-64
2023/11/21 12:26:30;;;;;;;10.82;7.68;;;;;;;;;;10486129;27;20086;-64
2023/11/21 12:31:29;;;;;;;7.82;6.68;;;;;;;;;;10476507;27;20065;-64
2023/11/21 12:36:30;;;;;;;8.45;4.75;;;;;;;;;;10466096;27;20063;-63
2023/11/21 12:41:28;;;;;;;9.75;6.53;;;;;;;;;;10484049;27;20073;-63
2023/11/21 12:46:29;;;;;;;13.75;9.43;;;;;;;;;;10481295;27;20074;-64
2023/11/21 12:51:30;;;;;;;17.52;9.38;;;;;;;;;;10489424;27;20077;-64
2023/11/21 12:56:28;;;;;;;15.50;8.45;;;;;;;;;;10492014;27;20414;-62
2023/11/21 13:01:28;;;;;;;12.27;5.35;;;;;;;;;;10492377;27;20071;-63
2023/11/21 13:06:27;;;;;;;13.18;5.72;;;;;;;;;;10482668;27;20063;-65
2023/11/21 13:11:27;;;;;;;10.10;5.68;;;;;;;;;;10466148;27;20058;-64
2023/11/21 13:16:26;;;;;;;11.82;6.03;;;;;;;;;;10457641;27;20085;-65
2023/11/21 13:21:24;;;;;;;11.73;4.40;;;;;;;;;;10454041;27;20066;-64
2023/11/21 13:26:24;;;;;;;6.25;4.43;;;;;;;;;;10457184;27;20069;-65
2023/11/21 13:31:30;;;;;;;8.93;4.55;;;;;;;;;;10456192;27;20093;-64
2023/11/21 13:36:32;;;;;;;10.07;7.07;;;;;;;;;;10455514;27;20066;-64
2023/11/21 13:41:31;;;;;;;19.52;12.02;;;;;;;;;;10456197;27;20070;-64
2023/11/21 13:46:36;;;;;;;13.65;6.65;;;;;;;;;;10460550;27;20074;-63
2023/11/21 13:51:40;;;;;;;9.77;5.93;;;;;;;;;;10459149;27;20475;-63
2023/11/21 13:56:39;;;;;;;14.75;7.85;;;;;;;;;;10459797;27;20068;-65
2023/11/21 14:01:54;;;;;;;15.85;12.00;;;;;;;;;;10456654;27;20078;-65
2023/11/21 14:06:54;;;;;;;14.33;9.30;;;;;;;;;;10459529;27;20080;-65
2023/11/21 14:11:53;;;;;;;13.32;8.95;;;;;;;;;;10458128;27;20081;-65
2023/11/21 14:16:53;;;;;;;13.85;7.03;;;;;;;;;;10457736;27;20067;-64
2023/11/21 14:21:52;;;;;;;12.60;9.32;;;;;;;;;;10457247;27;20067;-65
2023/11/21 14:26:51;;;;;;;23.38;13.70;;;;;;;;;;10455688;27;20058;-66
2023/11/21 14:31:51;;;;;;;14.55;7.88;;;;;;;;;;10452010;27;20515;-64
2023/11/21 14:36:51;;;;;;;12.43;11.13;;;;;;;;;;10456860;27;20077;-64
2023/11/21 14:41:49;;;;;;;45.67;34.28;;;;;;;;;;10456618;27;20570;-64
2023/11/21 14:46:50;;;;;;;69.95;51.47;;;;;;;;;;10456150;27;20077;-64
2023/11/21 14:52:00;;;;;;;18.48;15.57;;;;;;;;;;10451797;27;20070;-64
2023/11/21 14:57:00;;;;;;;13.35;8.80;;;;;;;;;;10448101;27;20085;-64
2023/11/21 15:02:00;;;;;;;21.60;17.27;;;;;;;;;;10452523;27;20075;-64
2023/11/21 15:06:58;;;;;;;15.93;12.80;;;;;;;;;;10451279;27;20078;-65
2023/11/21 15:12:03;;;;;;;11.70;9.70;;;;;;;;;;10452838;27;20078;-65
2023/11/21 15:17:03;;;;;;;11.38;7.93;;;;;;;;;;10433564;27;20074;-65
2023/11/21 15:22:02;;;;;;;17.13;9.20;;;;;;;;;;10438936;27;20074;-65
2023/11/21 15:27:00;;;;;;;10.35;7.95;;;;;;;;;;10446788;27;20079;-65
2023/11/21 15:31:58;;;;;;;12.65;10.40;;;;;;;;;;10453003;27;20494;-65
2023/11/21 15:36:58;;;;;;;9.43;8.48;;;;;;;;;;10451364;27;20065;-65
2023/11/21 15:41:56;;;;;;;10.30;7.65;;;;;;;;;;10454238;27;20503;-65
2023/11/21 15:46:55;;;;;;;11.05;6.88;;;;;;;;;;10451656;27;20085;-65
2023/11/21 15:51:55;;;;;;;9.48;6.80;;;;;;;;;;10445715;27;20066;-66
2023/11/21 15:56:57;;;;;;;13.93;7.57;;;;;;;;;;10447821;27;20113;-65
2023/11/21 16:01:55;;;;;;;12.63;9.05;;;;;;;;;;10447729;27;20070;-67
2023/11/21 16:06:53;;;;;;;10.95;7.07;;;;;;;;;;10449157;27;20071;-66
2023/11/21 16:11:56;;;;;;;11.00;6.28;;;;;;;;;;10451674;27;20078;-65
2023/11/21 16:16:56;;;;;;;11.63;7.20;;;;;;;;;;10452490;27;20133;-65
2023/11/21 16:21:54;;;;;;;11.30;7.47;;;;;;;;;;10450410;27;20078;-65
2023/11/21 16:26:52;;;;;;;13.35;9.07;;;;;;;;;;10450145;27;20050;-65
2023/11/21 16:31:52;;;;;;;11.82;8.35;;;;;;;;;;10455017;27;20071;-65
2023/11/21 16:36:52;;;;;;;13.55;9.50;;;;;;;;;;10454235;27;20451;-65
2023/11/21 16:41:50;;;;;;;16.55;9.77;;;;;;;;;;10450932;27;20074;-65
2023/11/21 16:46:52;;;;;;;12.77;8.98;;;;;;;;;;10461798;27;20148;-65
2023/11/21 16:51:52;;;;;;;13.48;7.38;;;;;;;;;;10461549;27;20535;-65
2023/11/21 16:56:51;;;;;;;9.75;8.18;;;;;;;;;;10461702;27;20074;-65
2023/11/21 17:01:49;;;;;;;9.98;8.50;;;;;;;;;;10462599;27;20074;-65
2023/11/21 17:06:48;;;;;;;14.32;9.90;;;;;;;;;;10461996;27;20481;-65
2023/11/21 17:11:48;;;;;;;14.23;10.32;;;;;;;;;;10460443;27;20067;-65
2023/11/21 17:16:49;;;;;;;6.30;5.70;;;;;;;;;;10461245;27;20078;-66
2023/11/21 17:21:47;;;;;;;16.70;12.57;;;;;;;;;;10459252;27;20086;-66
2023/11/21 17:26:45;;;;;;;10.15;7.18;;;;;;;;;;10460246;27;20065;-66
2023/11/21 17:31:45;;;;;;;7.55;6.13;;;;;;;;;;10459470;27;20090;-65
2023/11/21 17:36:44;;;;;;;10.68;7.63;;;;;;;;;;10458128;27;20047;-65
2023/11/21 17:41:42;;;;;;;12.02;7.50;;;;;;;;;;10460887;27;20555;-66
2023/11/21 17:46:40;;;;;;;8.85;6.15;;;;;;;;;;10458420;27;20066;-68
2023/11/21 17:51:40;;;;;;;11.43;8.45;;;;;;;;;;10458275;27;20438;-66
2023/11/21 17:56:39;;;;;;;8.73;6.63;;;;;;;;;;10455444;27;20066;-65
2023/11/21 18:01:37;;;;;;;8.27;6.43;;;;;;;;;;10458102;27;20075;-65
2023/11/21 18:06:36;;;;;;;9.20;6.40;;;;;;;;;;10458887;27;20070;-66
2023/11/21 18:11:36;;;;;;;11.35;6.75;;;;;;;;;;10458058;27;20062;-65
2023/11/21 18:16:34;;;;;;;9.80;8.38;;;;;;;;;;10454379;27;20078;-66
2023/11/21 18:21:33;;;;;;;16.85;11.90;;;;;;;;;;10457357;27;20546;-66
2023/11/21 18:26:31;;;;;;;10.25;6.50;;;;;;;;;;10456427;27;20613;-67
2023/11/21 18:31:30;;;;;;;12.05;8.45;;;;;;;;;;10457676;27;20508;-66
2023/11/21 18:36:29;;;;;;;9.02;8.10;;;;;;;;;;10458730;27;20066;-65
2023/11/21 18:41:27;;;;;;;10.13;9.10;;;;;;;;;;10458013;27;20187;-65
2023/11/21 18:46:25;;;;;;;8.75;7.85;;;;;;;;;;10452630;27;20066;-65
2023/11/21 18:51:25;;;;;;;9.45;8.30;;;;;;;;;;10452063;27;20070;-65
2023/11/21 18:56:23;;;;;;;18.55;14.18;;;;;;;;;;10452519;27;20071;-65
2023/11/21 19:01:26;;;;;;;22.00;16.10;;;;;;;;;;10457077;27;20121;-65
2023/11/21 19:06:26;;;;;;;10.27;7.97;;;;;;;;;;10447520;27;20542;-65
2023/11/21 19:11:25;;;;;;;11.32;9.25;;;;;;;;;;10436016;27;20082;-65
2023/11/21 19:16:23;;;;;;;11.48;10.18;;;;;;;;;;10432731;27;20067;-65
2023/11/21 19:21:21;;;;;;;18.45;15.43;;;;;;;;;;10428021;27;20075;-65
2023/11/21 19:26:21;;;;;;;38.58;29.58;;;;;;;;;;10428081;27;20090;-65
2023/11/21 19:31:20;;;;;;;47.30;34.35;;;;;;;;;;10432374;27;20066;-65
2023/11/21 19:36:18;;;;;;;27.20;19.30;;;;;;;;;;10433862;27;20063;-66
2023/11/21 19:41:18;;;;;;;17.13;11.43;;;;;;;;;;10435066;27;20078;-66
2023/11/21 19:46:18;;;;;;;7.93;6.78;;;;;;;;;;10435124;27;20086;-66
2023/11/21 19:51:18;;;;;;;6.38;5.78;;;;;;;;;;10446396;27;20656;-65
2023/11/21 19:56:16;;;;;;;11.18;10.18;;;;;;;;;;10453115;27;20050;-66
2023/11/21 20:01:15;;;;;;;8.02;5.93;;;;;;;;;;10448280;27;20554;-65
2023/11/21 20:06:15;;;;;;;7.15;6.43;;;;;;;;;;10442179;27;20093;-65
2023/11/21 20:11:13;;;;;;;14.05;9.75;;;;;;;;;;10449468;27;20070;-64
2023/11/21 20:16:12;;;;;;;10.23;9.18;;;;;;;;;;10450826;27;20071;-64
2023/11/21 20:21:10;;;;;;;39.63;29.00;;;;;;;;;;10457204;27;20078;-64
2023/11/21 20:26:10;;;;;;;34.03;24.60;;;;;;;;;;10459729;27;20086;-65
2023/11/21 20:31:08;;;;;;;25.23;17.85;;;;;;;;;;10455386;27;20059;-65
2023/11/21 20:36:07;;;;;;;25.75;17.50;;;;;;;;;;10452320;27;20081;-65
2023/11/21 20:41:06;;;;;;;17.88;14.43;;;;;;;;;;10455220;27;20067;-64
2023/11/21 20:46:06;;;;;;;15.18;11.48;;;;;;;;;;10447142;27;20471;-65
2023/11/21 20:51:04;;;;;;;12.40;10.43;;;;;;;;;;10452976;27;20066;-65
2023/11/21 20:56:03;;;;;;;15.88;10.75;;;;;;;;;;10454190;27;20078;-65
2023/11/21 21:01:01;;;;;;;15.45;11.15;;;;;;;;;;10455896;27;20083;-65
2023/11/21 21:06:01;;;;;;;20.83;10.95;;;;;;;;;;10453777;27;20081;-65
2023/11/21 21:10:59;;;;;;;21.13;16.05;;;;;;;;;;10457359;27;20398;-65
2023/11/21 21:15:57;;;;;;;46.85;34.80;;;;;;;;;;10453959;27;20075;-65
2023/11/21 21:20:56;;;;;;;19.25;15.85;;;;;;;;;;10456004;27;20400;-64
2023/11/21 21:25:56;;;;;;;20.05;15.15;;;;;;;;;;10460637;27;20039;-64
2023/11/21 21:30:57;;;;;;;38.85;25.38;;;;;;;;;;10451484;27;20082;-64
2023/11/21 21:35:55;;;;;;;33.42;22.50;;;;;;;;;;10458294;27;20035;-66
2023/11/21 21:40:53;;;;;;;42.92;27.23;;;;;;;;;;10458692;27;20503;-65
2023/11/21 21:45:53;;;;;;;29.70;21.95;;;;;;;;;;10454641;27;20116;-65
2023/11/21 21:50:51;;;;;;;34.85;22.77;;;;;;;;;;10459230;27;20074;-66
2023/11/21 21:55:51;;;;;;;44.50;34.20;;;;;;;;;;10442081;27;20534;-66
2023/11/21 22:00:49;;;;;;;21.33;13.30;;;;;;;;;;10436947;27;20077;-64
2023/11/21 22:05:49;;;;;;;28.13;14.75;;;;;;;;;;10441292;27;20078;-65
2023/11/21 22:10:47;;;;;;;18.10;14.35;;;;;;;;;;10439319;27;20071;-65
2023/11/21 22:15:46;;;;;;;26.42;18.50;;;;;;;;;;10440402;27;20511;-65
2023/11/21 22:20:44;;;;;;;23.60;17.67;;;;;;;;;;10444658;27;20067;-65
2023/11/21 22:25:44;;;;;;;14.90;12.95;;;;;;;;;;10439073;27;20081;-65
2023/11/21 22:30:42;;;;;;;21.10;15.23;;;;;;;;;;10442115;27;20082;-65
2023/11/21 22:35:45;;;;;;;16.48;11.85;;;;;;;;;;10439153;27;20066;-65
2023/11/21 22:40:47;;;;;;;18.77;15.40;;;;;;;;;;10447839;27;20077;-64
2023/11/21 22:45:46;;;;;;;12.80;10.57;;;;;;;;;;10455505;27;20082;-65
2023/11/21 22:50:46;;;;;;;13.82;11.32;;;;;;;;;;10459358;27;20059;-65
2023/11/21 22:55:44;;;;;;;13.07;9.35;;;;;;;;;;10457274;27;20070;-66
2023/11/21 23:00:45;;;;;;;10.68;9.15;;;;;;;;;;10452843;27;20089;-65
2023/11/21 23:05:43;;;;;;;11.05;8.75;;;;;;;;;;10453986;27;20070;-65
2023/11/21 23:10:43;;;;;;;15.13;10.68;;;;;;;;;;10454277;27;20516;-65
2023/11/21 23:15:42;;;;;;;16.40;12.52;;;;;;;;;;10453537;27;20100;-65
2023/11/21 23:20:42;;;;;;;12.07;8.57;;;;;;;;;;10454820;27;20193;-64
2023/11/21 23:25:40;;;;;;;12.30;10.25;;;;;;;;;;10454092;27;20086;-64
2023/11/21 23:30:39;;;;;;;14.02;9.95;;;;;;;;;;10452816;27;20085;-65
2023/11/21 23:35:38;;;;;;;10.98;9.57;;;;;;;;;;10454640;27;20090;-65
2023/11/21 23:40:38;;;;;;;10.60;7.22;;;;;;;;;;10454821;27;20506;-65
2023/11/21 23:45:37;;;;;;;10.77;7.80;;;;;;;;;;10457599;27;20063;-65
2023/11/21 23:50:36;;;;;;;7.85;6.88;;;;;;;;;;10454087;27;20062;-65
2023/11/21 23:55:34;;;;;;;10.52;7.45;;;;;;;;;;10456511;27;20554;-65
